createdAt,value
2022-12-06T00:01:35.728Z,5.22
2022-12-06T00:04:05.599Z,6.53
2022-12-06T00:06:36.683Z,6.82
2022-12-06T00:09:03.949Z,5.93
2022-12-06T00:11:35.694Z,4.63
2022-12-06T00:14:07.116Z,5.43
2022-12-06T00:16:35.146Z,5.10
2022-12-06T00:19:02.264Z,5.82
2022-12-06T00:21:31.613Z,6.50
2022-12-06T00:24:06.421Z,6.28
2022-12-06T00:26:36.583Z,7.53
2022-12-06T00:29:04.290Z,6.03
2022-12-06T00:31:32.313Z,4.93
2022-12-06T00:33:59.033Z,4.45
2022-12-06T00:36:29.067Z,6.32
2022-12-06T00:38:56.033Z,6.47
2022-12-06T00:41:24.282Z,5.20
2022-12-06T00:43:52.263Z,4.07
2022-12-06T00:46:21.617Z,7.97
2022-12-06T00:48:48.886Z,5.57
2022-12-06T00:51:17.220Z,5.47
2022-12-06T00:53:44.965Z,4.93
2022-12-06T00:56:12.002Z,5.68
2022-12-06T00:58:39.093Z,5.70
2022-12-06T01:01:14.892Z,6.03
2022-12-06T01:03:42.891Z,4.97
2022-12-06T01:06:12.593Z,11.98
2022-12-06T01:08:40.247Z,10.32
2022-12-06T01:11:08.001Z,6.88
2022-12-06T01:13:34.781Z,7.18
2022-12-06T01:16:15.946Z,8.13
2022-12-06T01:18:45.233Z,7.05
2022-12-06T01:21:17.886Z,4.65
2022-12-06T01:23:45.947Z,3.85
2022-12-06T01:26:20.492Z,4.13
2022-12-06T01:28:47.655Z,3.33
2022-12-06T01:31:15.854Z,5.00
2022-12-06T01:33:42.930Z,4.22
2022-12-06T01:36:15.633Z,6.07
2022-12-06T01:38:42.230Z,3.35
2022-12-06T01:41:08.876Z,3.97
2022-12-06T01:43:41.031Z,8.20
2022-12-06T01:46:26.444Z,11.82
2022-12-06T01:49:13.339Z,7.03
2022-12-06T01:52:01.940Z,4.60
2022-12-06T01:54:29.659Z,3.33
2022-12-06T01:56:58.740Z,3.03
2022-12-06T01:59:26.364Z,2.83
2022-12-06T02:01:53.717Z,3.97
2022-12-06T02:04:21.112Z,3.22
2022-12-06T02:06:47.943Z,3.88
2022-12-06T02:09:16.684Z,3.55
2022-12-06T02:11:47.411Z,3.10
2022-12-06T02:14:17.933Z,3.17
2022-12-06T02:17:03.504Z,2.72
2022-12-06T02:19:59.601Z,4.53
2022-12-06T02:22:50.502Z,3.42
2022-12-06T02:25:43.748Z,4.32
2022-12-06T02:28:42.596Z,3.92
2022-12-06T02:31:23.107Z,3.72
2022-12-06T02:33:55.574Z,5.50
2022-12-06T02:36:22.179Z,5.00
2022-12-06T02:38:48.761Z,5.15
2022-12-06T02:41:32.085Z,4.78
2022-12-06T02:44:04.395Z,3.78
2022-12-06T02:49:02.486Z,6.60
2022-12-06T02:51:31.492Z,11.80
2022-12-06T02:54:00.917Z,7.60
2022-12-06T02:56:28.398Z,7.45
2022-12-06T02:58:56.126Z,6.68
2022-12-06T03:01:29.669Z,6.60
2022-12-06T03:03:56.344Z,6.68
2022-12-06T03:06:50.823Z,6.03
2022-12-06T03:09:29.701Z,7.07
2022-12-06T03:12:15.134Z,6.05
2022-12-06T03:15:03.698Z,5.00
2022-12-06T03:17:47.666Z,5.28
2022-12-06T03:20:27.423Z,7.32
2022-12-06T03:23:02.286Z,4.60
2022-12-06T03:25:30.110Z,7.28
2022-12-06T03:27:58.750Z,4.75
2022-12-06T03:30:25.470Z,5.07
2022-12-06T03:32:52.395Z,4.50
2022-12-06T03:35:29.021Z,4.47
2022-12-06T03:38:23.255Z,4.72
2022-12-06T03:40:53.396Z,4.60
2022-12-06T03:43:20.195Z,4.68
2022-12-06T03:45:59.446Z,6.18
2022-12-06T03:48:38.089Z,5.28
2022-12-06T03:51:08.880Z,4.15
2022-12-06T03:53:35.638Z,4.22
2022-12-06T03:56:02.320Z,3.97
2022-12-06T03:58:29.028Z,4.82
2022-12-06T04:00:55.733Z,6.45
2022-12-06T04:03:22.527Z,5.55
2022-12-06T04:05:49.244Z,6.28
2022-12-06T04:08:15.993Z,5.93
2022-12-06T04:10:42.697Z,6.05
2022-12-06T04:13:09.473Z,5.10
2022-12-06T04:15:38.627Z,4.53
2022-12-06T04:18:18.483Z,5.05
2022-12-06T04:21:23.239Z,6.18
2022-12-06T04:23:51.959Z,4.05
2022-12-06T04:26:21.605Z,5.63
2022-12-06T04:29:08.008Z,21.13
2022-12-06T04:31:54.048Z,9.57
2022-12-06T04:34:39.791Z,10.70
2022-12-06T04:37:25.471Z,18.63
2022-12-06T04:39:52.233Z,7.80
2022-12-06T04:42:38.042Z,7.03
2022-12-06T04:45:06.035Z,6.30
2022-12-06T04:47:32.870Z,6.28
2022-12-06T04:49:59.800Z,7.25
2022-12-06T04:52:30.137Z,6.40
2022-12-06T04:54:59.411Z,7.20
2022-12-06T04:57:26.035Z,9.70
2022-12-06T04:59:52.723Z,9.10
2022-12-06T05:02:19.325Z,8.68
2022-12-06T05:04:45.948Z,7.10
2022-12-06T05:07:12.692Z,9.40
2022-12-06T05:09:39.478Z,10.07
2022-12-06T05:12:06.418Z,8.45
2022-12-06T05:14:33.127Z,4.72
2022-12-06T05:16:59.795Z,8.73
2022-12-06T05:19:27.233Z,5.95
2022-12-06T05:21:53.879Z,8.43
2022-12-06T05:24:20.556Z,10.07
2022-12-06T05:26:47.144Z,7.30
2022-12-06T05:29:13.776Z,7.07
2022-12-06T05:31:40.427Z,6.38
2022-12-06T05:34:07.087Z,6.38
2022-12-06T05:36:33.764Z,8.50
2022-12-06T05:39:00.542Z,6.55
2022-12-06T05:41:27.265Z,7.65
2022-12-06T05:43:53.940Z,5.88
2022-12-06T05:46:20.749Z,4.93
2022-12-06T05:48:47.618Z,7.22
2022-12-06T05:51:14.577Z,10.38
2022-12-06T05:53:41.466Z,38.35
2022-12-06T05:56:11.055Z,44.92
2022-12-06T05:58:37.875Z,47.97
2022-12-06T06:01:06.600Z,39.58
2022-12-06T06:03:33.786Z,30.00
2022-12-06T06:06:01.547Z,21.30
2022-12-06T06:08:29.639Z,10.65
2022-12-06T06:10:57.319Z,6.55
2022-12-06T06:13:24.179Z,4.90
2022-12-06T06:15:50.918Z,5.10
2022-12-06T06:18:18.629Z,7.15
2022-12-06T06:20:52.980Z,5.88
2022-12-06T06:23:21.130Z,7.65
2022-12-06T06:25:48.462Z,8.02
2022-12-06T06:28:15.618Z,9.18
2022-12-06T06:30:42.749Z,9.35
2022-12-06T06:33:09.920Z,7.75
2022-12-06T06:35:37.973Z,6.78
2022-12-06T06:38:04.639Z,8.93
2022-12-06T06:40:31.387Z,32.85
2022-12-06T06:42:58.184Z,11.25
2022-12-06T06:45:28.577Z,10.13
2022-12-06T06:47:55.800Z,8.88
2022-12-06T06:50:22.467Z,8.43
2022-12-06T06:52:49.117Z,9.80
2022-12-06T06:55:15.933Z,7.38
2022-12-06T06:57:42.590Z,9.90
2022-12-06T07:00:09.825Z,9.75
2022-12-06T07:02:39.468Z,11.63
2022-12-06T07:05:06.850Z,22.92
2022-12-06T07:07:33.638Z,20.15
2022-12-06T07:10:00.955Z,15.82
2022-12-06T07:12:27.749Z,15.52
2022-12-06T07:14:54.480Z,10.48
2022-12-06T07:17:21.107Z,7.38
2022-12-06T07:19:47.875Z,8.27
2022-12-06T07:22:14.515Z,8.82
2022-12-06T07:24:42.960Z,7.88
2022-12-06T07:27:12.356Z,8.07
2022-12-06T07:29:38.996Z,10.82
2022-12-06T07:32:05.857Z,8.70
2022-12-06T07:34:33.299Z,10.35
2022-12-06T07:36:59.941Z,10.23
2022-12-06T07:39:26.688Z,12.40
2022-12-06T07:42:11.888Z,11.57
2022-12-06T07:45:01.652Z,15.38
2022-12-06T07:47:37.224Z,15.23
2022-12-06T07:50:06.866Z,14.05
2022-12-06T07:52:34.650Z,20.33
2022-12-06T07:55:01.649Z,16.80
2022-12-06T07:57:28.419Z,14.57
2022-12-06T07:59:55.746Z,21.25
2022-12-06T08:02:25.757Z,17.95
2022-12-06T08:04:53.280Z,24.00
2022-12-06T08:07:21.576Z,17.45
2022-12-06T08:09:48.553Z,23.27
2022-12-06T08:12:15.524Z,20.95
2022-12-06T08:14:42.173Z,25.85
2022-12-06T08:17:08.962Z,23.20
2022-12-06T08:19:35.613Z,19.98
2022-12-06T08:22:02.372Z,25.42
2022-12-06T08:24:29.033Z,30.80
2022-12-06T08:26:55.787Z,27.88
2022-12-06T08:29:22.898Z,26.45
2022-12-06T08:31:49.770Z,27.65
2022-12-06T08:34:16.994Z,37.30
2022-12-06T08:36:43.692Z,34.65
2022-12-06T08:39:12.490Z,32.65
2022-12-06T08:42:14.520Z,31.30
2022-12-06T08:44:41.138Z,26.27
2022-12-06T08:47:07.766Z,26.45
2022-12-06T08:49:34.471Z,27.60
2022-12-06T08:52:01.251Z,26.40
2022-12-06T08:54:28.679Z,30.10
2022-12-06T08:56:55.821Z,31.80
2022-12-06T08:59:23.137Z,26.58
2022-12-06T09:01:49.859Z,30.20
2022-12-06T09:04:16.778Z,24.80
2022-12-06T09:06:44.924Z,30.27
2022-12-06T09:09:13.429Z,32.05
2022-12-06T09:11:40.741Z,28.90
2022-12-06T09:14:09.221Z,34.53
2022-12-06T09:16:36.181Z,33.20
2022-12-06T09:19:03.278Z,29.50
2022-12-06T09:21:30.651Z,32.20
2022-12-06T09:23:58.318Z,38.28
2022-12-06T09:26:25.745Z,32.22
2022-12-06T09:28:54.855Z,32.88
2022-12-06T09:31:21.992Z,36.50
2022-12-06T09:33:48.814Z,74.00
2022-12-06T09:36:25.311Z,34.42
2022-12-06T09:38:57.049Z,75.32
2022-12-06T09:41:52.729Z,153.57
2022-12-06T09:45:01.072Z,143.55
2022-12-06T09:47:42.558Z,221.32
2022-12-06T09:50:36.526Z,351.77
2022-12-06T09:53:27.533Z,459.23
2022-12-06T09:56:24.561Z,366.48
2022-12-06T09:59:19.789Z,429.17
2022-12-06T10:01:58.408Z,312.40
2022-12-06T10:04:46.784Z,407.13
2022-12-06T10:07:16.454Z,660.45
2022-12-06T10:09:55.532Z,892.20
2022-12-06T10:12:42.310Z,804.70
2022-12-06T10:15:14.924Z,1044.28
2022-12-06T10:17:52.595Z,652.05
2022-12-06T10:21:00.536Z,710.72
2022-12-06T10:23:50.049Z,818.28
2022-12-06T10:26:47.997Z,722.88
2022-12-06T10:29:40.406Z,618.83
2022-12-06T10:32:23.640Z,363.50
2022-12-06T10:35:18.241Z,393.90
2022-12-06T10:37:53.882Z,543.95
2022-12-06T10:40:41.840Z,334.02
2022-12-06T10:43:21.983Z,280.50
2022-12-06T10:46:43.416Z,180.93
2022-12-06T10:49:15.741Z,143.63
2022-12-06T10:51:59.085Z,58.67
2022-12-06T10:54:29.917Z,66.35
2022-12-06T10:57:02.152Z,119.28
2022-12-06T10:59:51.711Z,106.10
2022-12-06T11:02:31.237Z,309.77
2022-12-06T11:05:02.933Z,117.93
2022-12-06T11:07:43.283Z,225.65
2022-12-06T11:10:26.878Z,44.08
2022-12-06T11:13:28.792Z,14.65
2022-12-06T11:16:00.530Z,12.77
2022-12-06T11:18:29.399Z,31.17
2022-12-06T11:21:06.252Z,23.92
2022-12-06T11:24:00.826Z,28.05
2022-12-06T11:26:52.356Z,42.35
2022-12-06T11:29:19.302Z,14.75
2022-12-06T11:32:02.522Z,46.75
2022-12-06T11:34:36.344Z,49.08
2022-12-06T11:37:04.173Z,76.88
2022-12-06T11:39:31.714Z,37.85
2022-12-06T11:42:01.564Z,10.02
2022-12-06T11:44:38.467Z,10.63
2022-12-06T11:47:06.717Z,10.77
2022-12-06T11:49:42.054Z,7.25
2022-12-06T11:52:34.069Z,21.70
2022-12-06T11:55:05.580Z,22.30
2022-12-06T11:57:38.369Z,11.88
2022-12-06T12:00:11.189Z,8.77
2022-12-06T12:02:38.108Z,14.48
2022-12-06T12:05:35.124Z,18.23
2022-12-06T12:08:06.659Z,8.40
2022-12-06T12:10:36.177Z,8.90
2022-12-06T12:13:37.947Z,11.35
2022-12-06T12:16:36.310Z,11.57
2022-12-06T12:19:25.112Z,13.20
2022-12-06T12:21:54.632Z,10.60
2022-12-06T12:25:17.839Z,11.18
2022-12-06T12:27:44.961Z,10.57
2022-12-06T12:30:51.533Z,15.00
2022-12-06T12:33:19.974Z,10.40
2022-12-06T12:35:50.097Z,11.43
2022-12-06T12:38:31.641Z,11.30
2022-12-06T12:41:27.584Z,10.73
2022-12-06T12:46:56.168Z,23.08
2022-12-06T12:49:38.957Z,59.83
2022-12-06T12:52:30.710Z,99.65
2022-12-06T12:55:12.714Z,129.10
2022-12-06T12:57:40.804Z,157.50
2022-12-06T13:00:15.520Z,275.10
2022-12-06T13:02:43.950Z,101.28
2022-12-06T13:05:33.269Z,125.40
2022-12-06T13:08:09.575Z,230.70
2022-12-06T13:10:39.422Z,107.78
2022-12-06T13:13:14.632Z,16.80
2022-12-06T13:15:47.257Z,34.65
2022-12-06T13:18:21.177Z,16.08
2022-12-06T13:20:49.524Z,12.73
2022-12-06T13:23:19.716Z,19.75
2022-12-06T13:26:15.517Z,18.77
2022-12-06T13:28:46.948Z,14.52
2022-12-06T13:31:19.051Z,17.23
2022-12-06T13:33:51.328Z,15.80
2022-12-06T13:36:19.289Z,14.02
2022-12-06T13:38:46.172Z,15.10
2022-12-06T13:41:14.909Z,12.40
2022-12-06T13:43:48.891Z,13.45
2022-12-06T13:46:26.324Z,11.00
2022-12-06T13:48:55.836Z,11.48
2022-12-06T13:51:32.417Z,10.63
2022-12-06T13:54:19.285Z,9.43
2022-12-06T13:56:46.160Z,11.32
2022-12-06T13:59:12.906Z,10.68
2022-12-06T14:01:49.346Z,8.55
2022-12-06T14:06:57.937Z,17.27
2022-12-06T14:09:28.760Z,19.25
2022-12-06T14:12:00.406Z,9.93
2022-12-06T14:14:27.129Z,11.80
2022-12-06T14:17:10.564Z,15.13
2022-12-06T14:19:49.507Z,12.30
2022-12-06T14:22:23.488Z,10.45
2022-12-06T14:25:16.976Z,9.20
2022-12-06T14:27:48.306Z,14.45
2022-12-06T14:30:26.232Z,10.60
2022-12-06T14:32:55.878Z,13.98
2022-12-06T14:35:35.963Z,17.85
2022-12-06T14:38:16.470Z,12.68
2022-12-06T14:41:02.826Z,10.60
2022-12-06T14:43:32.957Z,10.40
2022-12-06T14:46:02.583Z,9.30
2022-12-06T14:48:51.813Z,18.00
2022-12-06T14:51:23.483Z,15.27
2022-12-06T14:53:50.781Z,9.77
2022-12-06T14:56:34.274Z,13.35
2022-12-06T14:59:09.170Z,8.35
2022-12-06T15:01:49.513Z,7.95
2022-12-06T15:04:35.328Z,8.75
2022-12-06T15:07:02.434Z,10.07
2022-12-06T15:09:30.796Z,7.10
2022-12-06T15:12:39.176Z,8.52
2022-12-06T15:15:06.011Z,8.75
2022-12-06T15:17:32.783Z,9.65
2022-12-06T15:19:59.899Z,8.55
2022-12-06T15:22:28.986Z,8.77
2022-12-06T15:25:00.091Z,14.68
2022-12-06T15:27:27.888Z,11.35
2022-12-06T15:29:54.598Z,11.63
2022-12-06T15:32:24.579Z,10.02
2022-12-06T15:34:51.307Z,10.98
2022-12-06T15:40:05.104Z,19.55
2022-12-06T15:42:31.878Z,15.80
2022-12-06T15:44:58.596Z,17.60
2022-12-06T15:47:25.338Z,11.57
2022-12-06T15:49:53.875Z,10.45
2022-12-06T15:52:24.735Z,13.52
2022-12-06T15:54:51.766Z,10.13
2022-12-06T15:57:18.487Z,10.20
2022-12-06T15:59:45.459Z,10.50
2022-12-06T16:02:17.415Z,10.88
2022-12-06T16:04:45.457Z,10.00
2022-12-06T16:07:13.442Z,7.88
2022-12-06T16:09:40.246Z,19.10
2022-12-06T16:12:07.215Z,27.77
2022-12-06T16:14:33.919Z,17.17
2022-12-06T16:17:00.546Z,12.95
2022-12-06T16:19:49.964Z,9.95
2022-12-06T16:22:16.627Z,12.25
2022-12-06T16:24:43.314Z,8.30
2022-12-06T16:27:10.288Z,26.15
2022-12-06T16:29:36.915Z,16.38
2022-12-06T16:32:03.594Z,38.55
2022-12-06T16:34:30.295Z,32.42
2022-12-06T16:37:09.265Z,23.27
2022-12-06T16:39:36.263Z,10.80
2022-12-06T16:42:05.838Z,34.17
2022-12-06T16:44:32.613Z,33.13
2022-12-06T16:46:59.558Z,40.78
2022-12-06T16:49:46.720Z,15.43
2022-12-06T16:52:14.805Z,12.10
2022-12-06T16:54:42.180Z,18.70
2022-12-06T16:57:11.283Z,16.20
2022-12-06T16:59:37.972Z,15.70
2022-12-06T17:02:16.069Z,19.42
2022-12-06T17:04:42.753Z,18.02
2022-12-06T17:07:09.380Z,21.15
2022-12-06T17:09:36.060Z,40.97
2022-12-06T17:12:02.849Z,21.17
2022-12-06T17:14:30.265Z,30.73
2022-12-06T17:17:00.027Z,29.42
2022-12-06T17:19:28.203Z,17.08
2022-12-06T17:21:55.372Z,14.77
2022-12-06T17:24:24.359Z,9.85
2022-12-06T17:26:51.307Z,102.43
2022-12-06T17:29:18.060Z,38.95
2022-12-06T17:31:44.764Z,30.02
2022-12-06T17:34:15.660Z,37.05
2022-12-06T17:36:43.275Z,23.85
2022-12-06T17:39:12.849Z,32.63
2022-12-06T17:41:57.987Z,47.63
2022-12-06T17:44:24.745Z,22.63
2022-12-06T17:46:51.420Z,12.75
2022-12-06T17:49:25.746Z,16.50
2022-12-06T17:51:52.668Z,11.63
2022-12-06T17:54:20.050Z,13.07
2022-12-06T17:56:48.956Z,11.57
2022-12-06T17:59:19.374Z,19.17
2022-12-06T18:02:17.417Z,22.65
2022-12-06T18:04:32.848Z,14.55
2022-12-06T18:06:59.518Z,11.38
2022-12-06T18:09:26.234Z,10.30
2022-12-06T18:11:52.925Z,14.45
2022-12-06T18:14:19.569Z,13.68
2022-12-06T18:16:46.661Z,10.35
2022-12-06T18:19:16.275Z,20.48
2022-12-06T18:21:43.234Z,9.25
2022-12-06T18:24:21.565Z,14.32
2022-12-06T18:26:49.734Z,10.27
2022-12-06T18:29:19.416Z,11.57
2022-12-06T18:31:46.684Z,10.00
2022-12-06T18:34:13.873Z,8.88
2022-12-06T18:36:41.173Z,12.55
2022-12-06T18:39:15.025Z,7.97
2022-12-06T18:41:46.029Z,8.15
2022-12-06T18:44:13.380Z,6.68
2022-12-06T18:46:42.321Z,9.70
2022-12-06T18:49:11.065Z,13.57
2022-12-06T18:51:38.752Z,11.40
2022-12-06T18:54:06.695Z,12.80
2022-12-06T18:56:34.658Z,14.68
2022-12-06T18:59:03.887Z,18.83
2022-12-06T19:01:33.845Z,17.10
2022-12-06T19:04:03.344Z,12.63
2022-12-06T19:06:35.659Z,14.00
2022-12-06T19:09:06.394Z,6.30
2022-12-06T19:11:37.070Z,10.30
2022-12-06T19:14:04.975Z,9.07
2022-12-06T19:16:39.468Z,12.18
2022-12-06T19:19:15.455Z,18.17
2022-12-06T19:21:43.836Z,13.32
2022-12-06T19:24:12.598Z,11.63
2022-12-06T19:26:39.722Z,13.65
2022-12-06T19:29:06.360Z,13.30
2022-12-06T19:31:33.340Z,12.60
2022-12-06T19:34:00.253Z,12.27
2022-12-06T19:36:29.472Z,8.48
2022-12-06T19:38:57.126Z,12.77
2022-12-06T19:41:24.133Z,12.23
2022-12-06T19:44:09.863Z,10.75
2022-12-06T19:46:37.229Z,16.40
2022-12-06T19:49:06.104Z,11.55
2022-12-06T19:51:35.754Z,12.50
2022-12-06T19:54:02.935Z,22.52
2022-12-06T19:56:29.605Z,17.85
2022-12-06T19:58:57.706Z,21.58
2022-12-06T20:01:26.239Z,14.52
2022-12-06T20:03:54.420Z,17.60
2022-12-06T20:06:23.622Z,12.65
2022-12-06T20:08:51.872Z,19.33
2022-12-06T20:11:39.692Z,12.95
2022-12-06T20:14:09.591Z,11.55
2022-12-06T20:16:37.074Z,16.23
2022-12-06T20:19:05.513Z,15.93
2022-12-06T20:21:32.430Z,18.45
2022-12-06T20:24:00.172Z,14.98
2022-12-06T20:26:31.704Z,17.67
2022-12-06T20:28:58.737Z,17.30
2022-12-06T20:31:28.083Z,10.07
2022-12-06T20:34:00.092Z,16.55
2022-12-06T20:36:28.250Z,16.75
2022-12-06T20:38:56.131Z,18.60
2022-12-06T20:41:25.717Z,22.92
2022-12-06T20:43:52.992Z,17.50
2022-12-06T20:46:26.467Z,12.13
2022-12-06T20:48:54.633Z,13.85
2022-12-06T20:51:24.054Z,12.10
2022-12-06T20:53:53.243Z,15.10
2022-12-06T20:56:22.187Z,20.13
2022-12-06T20:58:51.877Z,11.32
2022-12-06T21:01:22.452Z,15.65
2022-12-06T21:03:51.515Z,14.02
2022-12-06T21:06:20.429Z,14.20
2022-12-06T21:08:47.479Z,15.55
2022-12-06T21:11:22.692Z,20.20
2022-12-06T21:13:54.029Z,17.10
2022-12-06T21:16:23.728Z,17.90
2022-12-06T21:18:55.247Z,20.45
2022-12-06T21:21:27.691Z,22.83
2022-12-06T21:23:54.572Z,26.38
2022-12-06T21:26:21.374Z,15.52
2022-12-06T21:28:48.342Z,18.70
2022-12-06T21:31:15.254Z,19.33
2022-12-06T21:33:42.101Z,19.13
2022-12-06T21:36:10.190Z,24.67
2022-12-06T21:38:36.950Z,17.85
2022-12-06T21:41:06.056Z,25.33
2022-12-06T21:43:33.721Z,17.25
2022-12-06T21:46:09.057Z,20.83
2022-12-06T21:48:36.090Z,24.60
2022-12-06T21:51:08.848Z,18.23
2022-12-06T21:53:36.906Z,26.65
2022-12-06T21:56:14.130Z,24.83
2022-12-06T21:58:40.865Z,21.13
2022-12-06T22:01:10.095Z,20.55
2022-12-06T22:03:37.506Z,21.40
2022-12-06T22:06:09.370Z,21.40
2022-12-06T22:08:36.901Z,20.45
2022-12-06T22:11:08.341Z,18.95
2022-12-06T22:13:35.203Z,17.53
2022-12-06T22:16:06.810Z,17.20
2022-12-06T22:18:34.460Z,30.92
2022-12-06T22:21:04.821Z,23.17
2022-12-06T22:23:32.667Z,18.10
2022-12-06T22:26:00.123Z,20.20
2022-12-06T22:28:27.175Z,19.40
2022-12-06T22:30:53.926Z,15.70
2022-12-06T22:33:20.709Z,15.15
2022-12-06T22:35:47.328Z,16.73
2022-12-06T22:38:13.937Z,14.60
2022-12-06T22:52:35.766Z,14.77
2022-12-06T22:55:02.382Z,18.48
2022-12-06T22:57:29.042Z,21.70
2022-12-06T22:59:55.870Z,16.90
2022-12-06T23:02:22.573Z,17.77
2022-12-06T23:04:49.255Z,21.35
2022-12-06T23:07:15.912Z,25.27
2022-12-06T23:09:42.525Z,20.58
2022-12-06T23:12:09.176Z,17.65
2022-12-06T23:14:36.092Z,17.13
2022-12-06T23:17:02.731Z,17.48
2022-12-06T23:19:29.393Z,17.98
2022-12-06T23:21:56.023Z,17.55
2022-12-06T23:24:22.658Z,25.02
2022-12-06T23:26:54.522Z,18.23
2022-12-06T23:29:24.264Z,21.90
2022-12-06T23:31:50.999Z,19.80
2022-12-06T23:34:23.120Z,19.88
2022-12-06T23:36:50.008Z,15.05
2022-12-06T23:39:16.950Z,19.73
2022-12-06T23:41:43.843Z,22.08
2022-12-06T23:44:11.982Z,16.75
2022-12-06T23:46:39.758Z,13.98
2022-12-06T23:49:07.447Z,13.98
2022-12-06T23:51:36.749Z,21.90
2022-12-06T23:54:06.152Z,18.73
2022-12-06T23:56:37.188Z,17.77
2022-12-06T23:59:06.506Z,17.92
